North Amity, Maine
Current Conditions -  °F | °C
As of 12:53 AM on Saturday 01 Nov 2014 (Local Time) from KHUL Reporting Station
Overcast Overcast  
Wind Chill: 34°   Ceiling: 4200
Heat Index: 39°   Visibility: 10mi
Dew Point: 33°   Wind: 7mph
Humidity: 79%   Direction: 20°NNE
Pressure: 30.09"   Gusts: NA
Location:  45.8952°N, 67.8479°W
Report Text: KHUL 010453Z AUTO 02006KT 10SM OVC042 04/01 A3009 RMK AO2 SLP194 T00390006 400830017
Loading
Personal Weather Stations






























Interactive Weather Map
Tropical Storm Tracking
New forecast layout! Learn more

10-Day Weather Forecast

Advertisements
Track Severe Weather on mobile